Time;durP1;ratioP1;P1;durP2;ratioP2;P2;SDS_P1;SDS_P2;PMS_P1;PMS_P2;Temp;Humidity;BMP_temperature;BMP_pressure;BME280_temperature;BME280_humidity;BME280_pressure;Samples;Min_cycle;Max_cycle;Signal;HPM_P1;HPM_P2
2022/11/02 00:01:22;;;;;;;37.08;21.42;;;;;;;10.20;100.00;99662.75;8505996;27;19923;-79
2022/11/02 00:05:24;;;;;;;36.35;19.08;;;;;;;10.13;100.00;99662.28;8502240;27;20039;-80
2022/11/02 00:09:25;;;;;;;34.85;18.65;;;;;;;10.08;100.00;99665.06;8522985;27;20043;-80
2022/11/02 00:13:26;;;;;;;42.92;21.42;;;;;;;10.01;100.00;99667.31;8503424;27;20081;-79
2022/11/02 00:17:28;;;;;;;43.63;22.58;;;;;;;9.97;100.00;99666.28;8469196;27;20107;-79
2022/11/02 00:21:28;;;;;;;39.00;20.05;;;;;;;9.91;100.00;99662.84;8496100;27;20047;-79
2022/11/02 00:25:29;;;;;;;41.20;20.48;;;;;;;9.85;100.00;99660.50;8519538;27;20115;-80
2022/11/02 00:29:30;;;;;;;35.85;18.70;;;;;;;9.80;100.00;99668.66;8516417;27;20626;-80
2022/11/02 00:33:31;;;;;;;33.58;18.30;;;;;;;9.72;100.00;99675.53;8505231;27;20038;-79
2022/11/02 00:37:32;;;;;;;39.15;18.65;;;;;;;9.65;100.00;99677.75;8478794;27;20067;-79
2022/11/02 00:41:33;;;;;;;34.03;18.73;;;;;;;9.58;100.00;99683.50;8445904;27;20380;-80
2022/11/02 00:45:34;;;;;;;45.17;22.00;;;;;;;9.51;100.00;99674.97;8485493;27;20046;-79
2022/11/02 00:49:35;;;;;;;42.40;21.13;;;;;;;9.45;100.00;99678.81;8523253;27;20129;-80
2022/11/02 00:53:35;;;;;;;39.20;18.95;;;;;;;9.44;100.00;99677.19;8520648;27;20062;-79
2022/11/02 00:57:38;;;;;;;35.45;18.75;;;;;;;9.39;100.00;99685.34;8517826;27;20129;-80
2022/11/02 01:01:39;;;;;;;30.35;17.25;;;;;;;9.32;100.00;99679.47;8517567;27;20046;-79
2022/11/02 01:05:40;;;;;;;35.10;19.88;;;;;;;9.28;100.00;99700.03;8516409;27;20050;-80
2022/11/02 01:09:40;;;;;;;42.08;21.67;;;;;;;9.18;100.00;99687.47;8519408;27;20043;-80
2022/11/02 01:13:42;;;;;;;51.58;25.90;;;;;;;9.17;100.00;99693.13;8523847;27;20552;-80
2022/11/02 01:17:43;;;;;;;53.60;25.85;;;;;;;9.16;100.00;99686.13;8521923;27;20047;-79
2022/11/02 01:21:44;;;;;;;41.40;23.17;;;;;;;9.14;100.00;99688.31;8522845;27;20050;-79
2022/11/02 01:25:45;;;;;;;36.45;19.88;;;;;;;9.11;100.00;99688.88;8527651;27;20050;-79
2022/11/02 01:29:46;;;;;;;36.17;19.38;;;;;;;9.09;100.00;99691.06;8523363;27;20127;-79
2022/11/02 01:33:47;;;;;;;34.67;18.25;;;;;;;9.08;100.00;99694.84;8479165;27;20035;-79
2022/11/02 01:37:48;;;;;;;37.78;16.80;;;;;;;9.05;100.00;99700.78;8502545;27;20042;-80
2022/11/02 01:41:52;;;;;;;30.80;16.25;;;;;;;9.04;99.78;99688.41;8516045;27;20054;-79
2022/11/02 01:46:07;;;;;;;33.67;16.25;;;;;;;9.01;99.98;99694.34;8516153;27;20054;-79
2022/11/02 01:50:16;;;;;;;30.33;16.85;;;;;;;8.99;99.92;99701.94;8503580;27;20122;-79
2022/11/02 01:54:23;;;;;;;29.85;15.10;;;;;;;8.97;99.92;99701.41;8504922;27;20363;-79
2022/11/02 01:58:25;;;;;;;24.90;14.52;;;;;;;8.93;99.78;99686.91;8495638;27;20054;-79
2022/11/02 02:02:27;;;;;;;31.20;14.65;;;;;;;8.87;99.99;99684.25;8482638;27;20069;-80
2022/11/02 02:06:28;;;;;;;30.73;14.70;;;;;;;8.85;100.00;99697.19;8520598;27;20050;-79
2022/11/02 02:10:29;;;;;;;30.52;14.40;;;;;;;8.84;100.00;99684.81;8498694;27;20043;-80
2022/11/02 02:14:30;;;;;;;32.95;16.02;;;;;;;8.82;100.00;99686.19;8475649;27;20053;-79
2022/11/02 02:18:37;;;;;;;40.40;17.83;;;;;;;8.77;100.00;99692.44;8521574;27;20511;-80
2022/11/02 02:22:56;;;;;;;35.58;16.17;;;;;;;8.75;100.00;99691.91;8510740;27;20081;-80
2022/11/02 02:27:34;;;;;;;38.33;16.02;;;;;;;8.73;100.00;99696.75;8512462;27;20054;-80
2022/11/02 02:31:44;;;;;;;36.15;15.93;;;;;;;8.70;100.00;99700.00;8512678;27;20042;-80
2022/11/02 02:35:52;;;;;;;33.88;16.13;;;;;;;8.69;100.00;99703.78;8501261;27;20055;-80
2022/11/02 02:40:04;;;;;;;28.85;13.93;;;;;;;8.72;100.00;99697.84;8427449;28;20094;-80
2022/11/02 02:44:11;;;;;;;27.63;14.05;;;;;;;8.94;100.00;99710.03;8447319;28;20054;-79
2022/11/02 02:48:18;;;;;;;30.48;14.07;;;;;;;8.98;100.00;99721.88;8424924;28;20039;-79
2022/11/02 02:52:20;;;;;;;27.75;13.43;;;;;;;9.06;100.00;99713.16;8427501;28;20039;-79
2022/11/02 02:56:22;;;;;;;27.10;13.02;;;;;;;9.13;100.00;99719.03;8424111;28;20040;-79
2022/11/02 03:00:23;;;;;;;27.65;13.80;;;;;;;9.10;100.00;99712.31;8448041;28;20043;-79
2022/11/02 03:04:25;;;;;;;24.65;11.50;;;;;;;9.08;100.00;99711.00;8430357;28;20530;-79
2022/11/02 03:08:26;;;;;;;23.85;12.23;;;;;;;9.00;100.00;99714.28;8449058;28;20047;-79
2022/11/02 03:12:51;;;;;;;23.15;12.57;;;;;;;8.90;100.00;99720.59;8422345;28;20275;-79
2022/11/02 03:16:57;;;;;;;23.02;11.90;;;;;;;8.84;100.00;99730.59;8491457;27;20049;-79
2022/11/02 03:21:41;;;;;;;26.83;11.77;;;;;;;8.74;100.00;99721.78;8525500;27;20054;-79
2022/11/02 03:26:07;;;;;;;25.40;11.05;;;;;;;8.66;100.00;99720.53;8322379;28;20037;-80
2022/11/02 03:30:14;;;;;;;22.60;11.75;;;;;;;8.59;100.00;99720.03;8351972;28;20049;-79
2022/11/02 03:34:24;;;;;;;25.60;11.30;;;;;;;8.53;100.00;99717.63;8358424;28;20052;-79
2022/11/02 03:38:34;;;;;;;21.70;11.18;;;;;;;8.47;100.00;99716.88;8356407;28;20049;-79
2022/11/02 03:42:35;;;;;;;23.70;11.55;;;;;;;8.43;100.00;99710.44;8357164;28;20051;-79
2022/11/02 03:46:38;;;;;;;22.20;10.48;;;;;;;8.39;100.00;99720.16;8342049;28;20107;-79
2022/11/02 03:50:44;;;;;;;21.75;11.82;;;;;;;8.35;100.00;99724.50;8339895;28;20071;-79
2022/11/02 03:54:51;;;;;;;20.33;11.93;;;;;;;8.31;100.00;99718.06;8352746;28;20045;-80
2022/11/02 03:58:52;;;;;;;23.27;11.80;;;;;;;8.26;100.00;99726.13;8346456;28;20056;-79
2022/11/02 04:02:55;;;;;;;31.85;12.60;;;;;;;8.23;100.00;99721.31;8454811;27;20067;-79
2022/11/02 04:06:56;;;;;;;21.23;10.82;;;;;;;8.20;100.00;99728.03;8472879;27;20047;-79
2022/11/02 04:15:16;;;;;;;22.20;11.90;;;;;;;8.17;100.00;99733.19;8516531;27;20046;-79
2022/11/02 04:19:26;;;;;;;27.08;11.00;;;;;;;8.15;100.00;99735.34;8474111;27;20748;-79
2022/11/02 04:27:49;;;;;;;21.05;10.40;;;;;;;8.09;100.00;99744.53;8458846;27;20141;-80
2022/11/02 04:31:50;;;;;;;16.08;9.32;;;;;;;8.10;100.00;99738.06;8506091;27;20050;-80
2022/11/02 04:35:51;;;;;;;25.75;9.52;;;;;;;8.05;100.00;99742.38;8508904;27;20099;-80
2022/11/02 04:39:52;;;;;;;19.88;10.55;;;;;;;7.99;100.00;99743.47;8501905;27;20436;-80
2022/11/02 04:43:53;;;;;;;23.50;10.63;;;;;;;7.94;100.00;99735.44;8502087;27;20411;-80
2022/11/02 04:48:08;;;;;;;20.63;9.77;;;;;;;7.91;100.00;99730.63;8466096;27;20062;-80
2022/11/02 04:52:09;;;;;;;32.03;9.95;;;;;;;7.89;100.00;99727.38;8512894;27;20051;-79
2022/11/02 04:56:10;;;;;;;18.08;9.82;;;;;;;7.84;100.00;99724.72;8511395;27;20126;-80
2022/11/02 05:00:11;;;;;;;20.40;10.85;;;;;;;7.83;100.00;99725.81;8504516;27;20510;-80
2022/11/02 05:04:12;;;;;;;18.08;9.63;;;;;;;7.80;100.00;99729.06;8507602;27;20047;-79
2022/11/02 05:08:13;;;;;;;19.60;10.10;;;;;;;7.77;100.00;99739.56;8526347;27;20436;-79
2022/11/02 05:12:14;;;;;;;19.85;9.60;;;;;;;7.74;100.00;99735.53;8513153;27;20410;-79
2022/11/02 05:16:15;;;;;;;22.75;9.95;;;;;;;7.72;100.00;99737.66;8518324;27;20039;-79
2022/11/02 05:20:16;;;;;;;22.05;8.90;;;;;;;7.71;100.00;99736.09;8525695;27;20456;-80
2022/11/02 05:24:17;;;;;;;26.48;10.23;;;;;;;7.67;100.00;99740.38;8514786;27;20061;-80
2022/11/02 05:28:19;;;;;;;19.88;9.02;;;;;;;7.68;100.00;99746.56;8520580;27;20043;-80
2022/11/02 05:32:19;;;;;;;18.88;8.75;;;;;;;7.67;100.00;99745.75;8503615;27;20058;-80
2022/11/02 05:36:21;;;;;;;19.35;7.95;;;;;;;7.68;100.00;99747.38;8515882;27;20043;-80
2022/11/02 05:40:21;;;;;;;20.10;8.30;;;;;;;7.68;100.00;99746.56;8505364;27;20073;-79
2022/11/02 05:44:25;;;;;;;18.73;8.57;;;;;;;7.64;100.00;99749.00;8503230;27;20043;-80
2022/11/02 05:48:27;;;;;;;15.20;7.72;;;;;;;7.62;100.00;99743.09;8524914;27;20389;-80
2022/11/02 05:52:28;;;;;;;17.30;7.65;;;;;;;7.62;100.00;99756.53;8509940;27;20735;-80
2022/11/02 05:56:29;;;;;;;17.63;8.10;;;;;;;7.62;100.00;99751.16;8501081;27;20138;-80
2022/11/02 06:00:30;;;;;;;15.07;8.25;;;;;;;7.59;100.00;99749.03;8499675;27;20042;-80
2022/11/02 06:04:31;;;;;;;17.20;7.65;;;;;;;7.58;100.00;99752.78;8502220;27;20100;-80
2022/11/02 06:08:33;;;;;;;15.38;8.38;;;;;;;7.58;100.00;99758.16;8505982;27;20047;-80
2022/11/02 06:12:34;;;;;;;16.80;8.05;;;;;;;7.55;100.00;99769.47;8480960;27;20073;-80
2022/11/02 06:16:35;;;;;;;18.23;8.10;;;;;;;7.54;100.00;99767.84;8511511;27;20051;-80
2022/11/02 06:20:36;;;;;;;16.50;8.10;;;;;;;7.55;100.00;99758.72;8516586;27;20063;-80
2022/11/02 06:24:37;;;;;;;15.25;7.85;;;;;;;7.59;100.00;99759.78;8519734;27;20050;-80
2022/11/02 06:28:38;;;;;;;21.95;9.95;;;;;;;7.63;100.00;99761.63;8507787;27;20450;-80
2022/11/02 06:32:45;;;;;;;20.02;9.10;;;;;;;7.72;100.00;99767.25;8516375;27;20046;-80
2022/11/02 06:36:48;;;;;;;23.35;10.75;;;;;;;7.86;100.00;99776.34;8521683;27;20185;-80
2022/11/02 06:40:59;;;;;;;23.80;10.80;;;;;;;8.09;100.00;99779.50;8519864;27;20142;-80
2022/11/02 06:45:01;;;;;;;29.10;10.95;;;;;;;8.40;100.00;99781.00;8474665;27;20043;-80
2022/11/02 06:49:02;;;;;;;20.83;10.82;;;;;;;8.63;100.00;99788.38;8501583;27;20051;-80
2022/11/02 06:53:03;;;;;;;24.10;11.38;;;;;;;8.84;100.00;99776.38;8504540;27;20073;-78
2022/11/02 06:57:04;;;;;;;23.23;10.82;;;;;;;8.99;100.00;99788.16;8500602;27;20428;-80
2022/11/02 07:01:06;;;;;;;31.55;11.95;;;;;;;9.13;100.00;99789.09;8510423;27;20903;-79
2022/11/02 07:05:08;;;;;;;27.35;12.18;;;;;;;9.25;100.00;99792.25;8505562;27;20047;-81
2022/11/02 07:09:08;;;;;;;21.95;11.73;;;;;;;9.41;100.00;99790.97;8499453;27;20040;-80
2022/11/02 07:13:10;;;;;;;20.05;9.68;;;;;;;9.56;100.00;99792.75;8500092;27;20126;-80
2022/11/02 07:17:10;;;;;;;26.27;11.65;;;;;;;9.69;100.00;99809.03;8507918;27;20035;-80
2022/11/02 07:21:11;;;;;;;21.63;10.13;;;;;;;9.80;100.00;99803.53;8502952;27;20042;-79
2022/11/02 07:25:12;;;;;;;26.75;10.00;;;;;;;9.88;100.00;99805.63;8474700;27;20134;-79
2022/11/02 07:29:14;;;;;;;22.70;9.73;;;;;;;9.96;100.00;99813.06;8501312;27;20130;-80
2022/11/02 07:33:14;;;;;;;21.73;10.82;;;;;;;10.05;100.00;99822.13;8508627;27;20049;-78
2022/11/02 07:37:16;;;;;;;22.38;10.38;;;;;;;10.15;100.00;99814.72;8524338;27;20043;-80
2022/11/02 07:41:16;;;;;;;25.83;12.23;;;;;;;10.24;100.00;99804.13;8507293;27;20088;-79
2022/11/02 07:45:18;;;;;;;21.98;10.70;;;;;;;10.29;100.00;99801.38;8514218;27;20046;-79
2022/11/02 07:49:18;;;;;;;22.50;10.77;;;;;;;10.35;100.00;99805.63;8515167;27;20134;-80
2022/11/02 07:53:19;;;;;;;22.70;10.43;;;;;;;10.39;100.00;99801.25;8460335;27;20064;-79
2022/11/02 07:57:20;;;;;;;24.25;10.70;;;;;;;10.43;100.00;99796.88;8491507;27;20524;-79
2022/11/02 08:01:21;;;;;;;23.58;8.65;;;;;;;10.55;100.00;99797.25;8485704;27;20134;-78
2022/11/02 08:05:23;;;;;;;20.60;8.65;;;;;;;10.73;99.50;99794.84;8503927;27;20046;-79
2022/11/02 08:09:24;;;;;;;19.73;7.45;;;;;;;10.91;98.08;99796.72;8500509;27;20047;-78
2022/11/02 08:13:42;;;;;;;15.40;7.32;;;;;;;11.07;95.49;99795.38;8507580;27;20038;-79
2022/11/02 08:17:43;;;;;;;18.65;7.60;;;;;;;11.15;93.67;99792.00;8500543;27;20074;-80
2022/11/02 08:21:45;;;;;;;13.73;7.20;;;;;;;11.26;92.32;99788.00;8499759;27;20043;-80
2022/11/02 08:25:48;;;;;;;16.50;7.55;;;;;;;11.35;91.47;99794.38;8504389;27;20055;-79
2022/11/02 08:29:49;;;;;;;19.50;7.63;;;;;;;11.48;90.62;99783.84;8500071;27;20043;-80
2022/11/02 08:33:49;;;;;;;15.85;8.13;;;;;;;11.57;89.12;99782.09;8501921;27;20095;-79
2022/11/02 08:37:54;;;;;;;19.55;6.65;;;;;;;11.67;87.58;99781.91;8428783;27;20055;-80
2022/11/02 08:41:55;;;;;;;17.73;6.28;;;;;;;11.83;87.06;99796.78;8447214;27;20075;-80
2022/11/02 08:45:58;;;;;;;18.15;6.25;;;;;;;11.94;86.52;99792.78;8513645;27;20038;-79
2022/11/02 08:49:59;;;;;;;14.05;6.25;;;;;;;12.05;85.51;99788.78;8526882;27;20551;-80
2022/11/02 08:54:00;;;;;;;14.98;5.97;;;;;;;12.17;84.68;99780.91;8499007;27;20043;-78
2022/11/02 08:58:01;;;;;;;16.00;6.10;;;;;;;12.27;82.59;99786.13;8497408;27;20510;-78
2022/11/02 09:02:02;;;;;;;13.93;4.82;;;;;;;12.43;81.42;99777.66;8498999;27;20054;-79
2022/11/02 09:06:03;;;;;;;13.85;4.10;;;;;;;12.53;80.19;99788.31;8506205;27;20069;-78
2022/11/02 09:10:06;;;;;;;11.68;4.40;;;;;;;12.63;79.06;99788.88;8453245;27;20055;-79
2022/11/02 09:14:07;;;;;;;12.05;4.32;;;;;;;12.74;76.58;99800.28;8464094;27;20066;-79
2022/11/02 09:18:08;;;;;;;10.20;4.15;;;;;;;12.82;77.59;99791.41;8509646;27;20054;-79
2022/11/02 09:22:09;;;;;;;17.20;4.70;;;;;;;12.87;76.21;99788.59;8507526;27;20039;-79
2022/11/02 09:26:10;;;;;;;13.95;4.50;;;;;;;12.89;74.53;99797.22;8458624;27;21729;-78
2022/11/02 09:30:12;;;;;;;20.25;4.32;;;;;;;12.90;73.92;99781.75;8485250;27;20055;-79
2022/11/02 09:34:13;;;;;;;14.30;4.38;;;;;;;12.91;73.22;99789.56;8532203;27;20043;-79
2022/11/02 09:38:17;;;;;;;12.77;4.45;;;;;;;13.03;73.70;99789.81;8518196;27;20099;-77
2022/11/02 09:42:35;;;;;;;19.20;4.60;;;;;;;13.15;73.34;99793.94;8517569;27;20051;-79
2022/11/02 09:46:42;;;;;;;17.48;4.50;;;;;;;13.21;73.20;99792.69;8485339;27;20050;-79
2022/11/02 09:50:47;;;;;;;15.23;3.95;;;;;;;13.22;72.62;99788.88;8527874;27;20050;-78
2022/11/02 09:54:49;;;;;;;11.68;4.03;;;;;;;13.30;71.97;99790.84;8503739;27;20051;-78
2022/11/02 09:59:02;;;;;;;16.88;4.82;;;;;;;13.41;72.87;99800.31;8472074;27;20053;-78
2022/11/02 10:03:31;;;;;;;10.32;3.33;;;;;;;13.55;71.70;99798.31;8504106;27;20055;-79
2022/11/02 10:07:35;;;;;;;;;;;;;;;13.61;70.23;99797.06;8504297;27;20039;-79
2022/11/02 10:11:53;;;;;;;8.48;2.95;;;;;;;13.74;70.26;99801.63;8515825;27;20323;-79
2022/11/02 10:16:14;;;;;;;14.43;3.53;;;;;;;13.83;69.87;99799.72;8498761;27;20058;-79
2022/11/02 10:20:23;;;;;;;7.72;3.10;;;;;;;13.93;70.34;99794.03;8483586;27;20045;-78
2022/11/02 10:24:28;;;;;;;12.75;3.20;;;;;;;14.05;70.11;99789.91;8503896;27;20074;-79
2022/11/02 10:28:33;;;;;;;7.70;2.92;;;;;;;14.15;68.92;99795.06;8485577;27;20051;-79
2022/11/02 10:32:35;;;;;;;13.55;3.67;;;;;;;14.26;67.77;99791.72;8503976;27;20051;-80
2022/11/02 10:36:58;;;;;;;11.30;3.30;;;;;;;14.26;67.95;99790.94;8503989;27;20059;-81
2022/11/02 10:41:25;;;;;;;10.07;2.78;;;;;;;14.34;68.52;99792.84;8502971;27;20047;-78
2022/11/02 10:45:51;;;;;;;8.40;3.03;;;;;;;14.46;66.63;99784.91;8512010;27;20054;-79
2022/11/02 10:50:01;;;;;;;9.70;3.05;;;;;;;14.53;67.01;99801.56;8514586;27;20383;-78
2022/11/02 10:54:02;;;;;;;16.05;3.65;;;;;;;14.58;66.60;99798.69;8495338;27;20122;-80
2022/11/02 10:58:03;;;;;;;15.43;4.07;;;;;;;14.51;65.30;99798.34;8425089;27;20058;-79
2022/11/02 11:02:14;;;;;;;14.77;3.70;;;;;;;14.48;65.30;99788.13;8452047;28;20047;-79
2022/11/02 11:06:15;;;;;;;8.45;3.20;;;;;;;14.63;66.31;99784.94;8456970;28;20055;-81
2022/11/02 11:10:16;;;;;;;13.75;3.28;;;;;;;14.67;65.63;99785.91;8427148;28;20056;-79
2022/11/02 11:14:20;;;;;;;17.58;4.07;;;;;;;14.65;65.11;99782.69;8453985;28;20047;-81
2022/11/02 11:18:21;;;;;;;11.32;3.30;;;;;;;14.75;65.55;99782.38;8439657;28;20044;-80
2022/11/02 11:22:25;;;;;;;11.75;2.83;;;;;;;14.87;66.00;99783.66;8442493;28;20370;-79
2022/11/02 11:26:29;;;;;;;9.25;3.33;;;;;;;14.97;66.01;99772.44;8417080;28;20130;-79
2022/11/02 11:30:33;;;;;;;11.93;3.15;;;;;;;14.95;65.58;99769.28;8449779;27;20055;-80
2022/11/02 11:34:35;;;;;;;10.70;3.10;;;;;;;15.00;65.53;99766.38;8501560;27;20444;-79
2022/11/02 11:38:45;;;;;;;12.73;3.35;;;;;;;15.01;65.43;99757.91;8464013;27;20039;-79
2022/11/02 11:42:49;;;;;;;9.77;3.10;;;;;;;15.06;65.59;99759.66;8497247;27;20134;-78
2022/11/02 11:47:02;;;;;;;11.60;3.20;;;;;;;15.06;64.52;99755.03;8496701;27;20054;-79
2022/11/02 11:51:28;;;;;;;10.80;3.15;;;;;;;15.02;64.64;99736.94;8460278;27;20049;-80
2022/11/02 11:55:32;;;;;;;14.38;3.85;;;;;;;14.95;64.54;99736.63;8432824;27;20047;-79
2022/11/02 11:59:42;;;;;;;10.13;3.70;;;;;;;14.93;65.17;99736.16;8504167;27;20130;-81
2022/11/02 12:03:54;;;;;;;16.13;3.15;;;;;;;14.98;64.63;99744.13;8467984;27;20054;-79
2022/11/02 12:08:41;;;;;;;12.02;3.00;;;;;;;15.04;64.65;99734.69;8430763;27;20049;-79
2022/11/02 12:12:48;;;;;;;13.15;3.55;;;;;;;15.06;63.89;99743.34;8360313;28;20040;-79
2022/11/02 12:17:18;;;;;;;11.45;3.53;;;;;;;15.08;63.33;99735.63;8303178;28;20144;-79
2022/11/02 12:21:29;;;;;;;9.38;3.08;;;;;;;15.15;64.06;99725.06;8341383;28;20549;-80
2022/11/02 12:25:39;;;;;;;16.80;2.92;;;;;;;15.16;63.29;99726.69;8352522;28;20045;-78
2022/11/02 12:29:52;;;;;;;14.00;2.90;;;;;;;15.19;62.51;99726.00;8331894;28;20091;-79
2022/11/02 12:34:21;;;;;;;20.48;4.05;;;;;;;15.18;62.91;99729.84;8348818;28;20136;-79
2022/11/02 12:38:40;;;;;;;;;;;;;;;15.18;62.38;99724.41;8327186;28;20049;-80
2022/11/02 12:42:49;;;;;;;12.60;3.25;;;;;;;15.15;62.92;99725.06;8353347;28;19959;-79
2022/11/02 12:47:17;;;;;;;13.75;3.30;;;;;;;15.15;63.44;99725.06;8471608;27;20046;-80
2022/11/02 12:51:39;;;;;;;15.40;3.78;;;;;;;15.32;63.13;99716.88;8513228;27;20042;-80
2022/11/02 12:55:44;;;;;;;13.20;3.20;;;;;;;15.95;61.64;99720.63;8494356;27;20045;-79
2022/11/02 12:59:53;;;;;;;10.98;3.10;;;;;;;16.31;61.10;99718.16;8511933;27;20039;-80
2022/11/02 13:04:16;;;;;;;11.30;3.00;;;;;;;16.50;60.23;99714.19;8481225;27;20054;-80
2022/11/02 13:08:42;;;;;;;14.77;3.67;;;;;;;16.83;59.71;99717.75;8521344;27;20047;-79
2022/11/02 13:12:44;;;;;;;13.10;2.80;;;;;;;16.80;59.19;99723.88;8506320;27;20103;-79
2022/11/02 13:16:48;;;;;;;13.10;3.33;;;;;;;16.60;59.40;99727.44;8497340;27;20389;-79
2022/11/02 13:20:55;;;;;;;9.63;3.25;;;;;;;16.33;60.63;99732.25;8516132;27;20042;-79
2022/11/02 13:25:03;;;;;;;16.08;3.40;;;;;;;16.24;61.14;99728.78;8461026;27;20099;-79
2022/11/02 13:29:12;;;;;;;19.33;3.53;;;;;;;16.12;60.72;99742.34;8455198;28;20036;-79
2022/11/02 13:33:48;;;;;;;15.10;3.07;;;;;;;15.87;61.15;99740.53;8425947;28;20044;-79
2022/11/02 13:37:57;;;;;;;13.80;3.67;;;;;;;15.65;62.42;99743.53;8393725;28;20156;-79
2022/11/02 13:42:01;;;;;;;16.67;4.90;;;;;;;15.55;63.19;99742.75;8364507;28;20048;-79
2022/11/02 13:46:08;;;;;;;14.90;4.15;;;;;;;15.31;64.12;99739.75;8362784;28;20045;-79
2022/11/02 13:50:13;;;;;;;14.65;4.30;;;;;;;15.11;65.31;99740.44;8362917;28;20410;-78
2022/11/02 13:54:17;;;;;;;21.88;4.40;;;;;;;14.99;65.91;99743.03;8330651;28;20045;-80
2022/11/02 13:58:43;;;;;;;16.45;4.13;;;;;;;14.80;67.25;99741.44;8346217;28;20391;-79
2022/11/02 14:02:44;;;;;;;17.85;4.82;;;;;;;14.70;68.02;99741.75;8383029;28;20050;-77
2022/11/02 14:07:03;;;;;;;16.55;4.47;;;;;;;14.68;68.37;99749.44;8388447;28;20048;-79
2022/11/02 14:11:13;;;;;;;13.32;4.53;;;;;;;14.61;68.56;99754.56;8414502;28;20048;-79
2022/11/02 14:15:14;;;;;;;13.52;4.15;;;;;;;14.59;68.43;99754.06;8441496;28;20040;-79
2022/11/02 14:19:30;;;;;;;16.85;4.90;;;;;;;14.54;69.30;99754.22;8485566;27;20047;-78
2022/11/02 14:23:35;;;;;;;18.85;4.20;;;;;;;14.44;69.35;99757.25;8504225;27;20058;-78
2022/11/02 14:27:37;;;;;;;14.45;4.35;;;;;;;14.38;69.17;99766.69;8508062;27;20049;-77
2022/11/02 14:31:42;;;;;;;15.15;4.47;;;;;;;14.32;69.22;99767.94;8474585;27;20051;-78
2022/11/02 14:35:51;;;;;;;19.48;4.43;;;;;;;14.26;69.82;99763.75;8484725;27;20418;-78
2022/11/02 14:39:55;;;;;;;14.68;4.50;;;;;;;14.22;70.33;99765.53;8488248;27;20098;-79
2022/11/02 14:44:18;;;;;;;20.60;6.20;;;;;;;14.21;70.45;99772.06;8513843;27;20140;-78
2022/11/02 14:48:18;;;;;;;21.30;6.68;;;;;;;14.21;70.19;99772.06;8524649;27;20047;-78
2022/11/02 14:52:23;;;;;;;22.60;7.53;;;;;;;14.08;71.03;99772.97;8498948;27;20121;-79
2022/11/02 14:56:51;;;;;;;22.70;7.07;;;;;;;14.06;70.95;99780.66;8500663;27;20133;-79
2022/11/02 15:01:02;;;;;;;26.02;6.80;;;;;;;13.96;71.03;99782.53;8493625;27;20096;-78
2022/11/02 15:05:06;;;;;;;20.38;5.15;;;;;;;13.89;71.60;99793.06;8483406;27;20057;-79
2022/11/02 15:09:09;;;;;;;13.57;4.50;;;;;;;13.83;72.02;99802.44;8489042;27;20054;-79
2022/11/02 15:13:19;;;;;;;15.57;4.70;;;;;;;13.79;72.21;99804.19;8476495;27;20086;-78
2022/11/02 15:17:23;;;;;;;16.35;4.75;;;;;;;13.77;72.60;99806.41;8498608;27;20058;-79
2022/11/02 15:21:25;;;;;;;17.77;5.40;;;;;;;13.65;73.21;99814.31;8499663;27;20540;-79
2022/11/02 15:25:30;;;;;;;12.68;4.57;;;;;;;13.45;73.73;99820.28;8513666;27;20520;-79
2022/11/02 15:29:43;;;;;;;16.20;5.28;;;;;;;13.32;73.85;99810.31;8487727;27;20483;-78
2022/11/02 15:33:54;;;;;;;20.58;6.20;;;;;;;13.10;74.42;99820.03;8498568;27;20400;-79
2022/11/02 15:37:59;;;;;;;18.60;5.35;;;;;;;13.03;74.35;99814.22;8511908;27;20048;-79
2022/11/02 15:42:19;;;;;;;16.38;5.20;;;;;;;12.87;74.77;99815.69;8475553;27;20500;-78
2022/11/02 15:46:38;;;;;;;;;;;;;;;12.80;74.99;99815.31;8462925;27;20043;-79
2022/11/02 15:50:52;;;;;;;18.70;6.53;;;;;;;12.68;75.13;99820.47;8496830;27;19919;-79
2022/11/02 15:55:12;;;;;;;19.75;5.93;;;;;;;12.60;75.71;99821.97;8513145;27;20058;-78
2022/11/02 15:59:28;;;;;;;19.95;6.03;;;;;;;12.50;76.11;99826.81;8501580;27;20416;-78
2022/11/02 16:03:29;;;;;;;16.13;5.15;;;;;;;12.39;76.51;99820.00;8497447;27;20047;-79
2022/11/02 16:07:31;;;;;;;19.85;6.85;;;;;;;12.30;76.95;99821.84;8490296;27;20039;-79
2022/11/02 16:11:31;;;;;;;18.48;5.63;;;;;;;12.20;77.35;99829.06;8507194;27;20120;-79
2022/11/02 16:15:33;;;;;;;17.60;5.55;;;;;;;12.14;77.58;99835.69;8516264;27;20043;-78
2022/11/02 16:19:33;;;;;;;13.70;5.60;;;;;;;12.09;77.81;99838.50;8492917;27;20078;-78
2022/11/02 16:23:40;;;;;;;16.88;5.75;;;;;;;11.97;78.00;99835.47;8524018;27;20674;-79
2022/11/02 16:27:41;;;;;;;19.50;5.40;;;;;;;11.88;78.38;99842.69;8436731;28;20055;-78
2022/11/02 16:31:45;;;;;;;20.85;7.25;;;;;;;11.82;78.60;99838.47;8445861;28;20059;-79
2022/11/02 16:35:46;;;;;;;22.35;8.07;;;;;;;11.71;78.92;99837.00;8441820;28;20193;-78
2022/11/02 16:39:47;;;;;;;19.02;8.18;;;;;;;11.59;79.28;99833.97;8431863;28;20048;-78
2022/11/02 16:43:48;;;;;;;21.63;8.50;;;;;;;11.51;79.59;99837.38;8453600;28;20468;-79
2022/11/02 16:47:49;;;;;;;20.98;7.60;;;;;;;11.42;79.90;99840.75;8449710;28;20047;-79
2022/11/02 16:51:59;;;;;;;21.17;8.27;;;;;;;11.32;80.35;99846.31;8429872;28;20060;-79
2022/11/02 16:56:26;;;;;;;21.80;8.57;;;;;;;11.17;80.60;99843.88;8434769;28;20044;-79
2022/11/02 17:00:27;;;;;;;17.17;8.27;;;;;;;11.05;80.80;99851.63;8433303;28;20048;-79
2022/11/02 17:04:31;;;;;;;24.80;9.43;;;;;;;10.90;81.62;99865.34;8406880;28;20059;-79
2022/11/02 17:08:34;;;;;;;22.88;10.10;;;;;;;10.80;81.48;99863.59;8430046;28;20040;-78
2022/11/02 17:12:41;;;;;;;25.95;10.07;;;;;;;10.68;81.77;99873.25;8431110;28;20044;-79
2022/11/02 17:17:06;;;;;;;26.13;10.07;;;;;;;10.54;82.22;99884.75;8444307;28;20048;-79
2022/11/02 17:21:11;;;;;;;32.25;12.05;;;;;;;10.44;82.46;99890.28;8429008;28;20044;-79
2022/11/02 17:25:19;;;;;;;27.58;12.35;;;;;;;10.35;82.65;99892.03;8442004;27;20454;-79
2022/11/02 17:29:23;;;;;;;27.98;11.80;;;;;;;10.26;82.91;99903.75;8497297;27;20055;-79
2022/11/02 17:33:28;;;;;;;26.48;11.10;;;;;;;10.17;83.06;99903.53;8497158;27;20051;-78
2022/11/02 17:37:31;;;;;;;31.08;10.75;;;;;;;10.14;83.32;99909.50;8483537;27;20046;-78
2022/11/02 17:45:56;;;;;;;25.08;10.02;;;;;;;10.16;83.41;99915.44;8518400;27;20057;-79
2022/11/02 17:50:00;;;;;;;34.38;11.38;;;;;;;10.15;83.77;99919.22;8523890;27;20050;-78
2022/11/02 17:54:03;;;;;;;23.05;10.60;;;;;;;10.19;84.24;99920.28;8476274;27;20484;-78
2022/11/02 17:58:05;;;;;;;23.10;10.55;;;;;;;10.21;84.90;99934.28;8528182;27;20051;-78
2022/11/02 18:02:11;;;;;;;30.35;11.18;;;;;;;10.26;85.14;99934.22;8506890;27;20047;-78
2022/11/02 18:06:12;;;;;;;28.48;10.30;;;;;;;10.26;85.24;99931.50;8491643;27;20047;-79
2022/11/02 18:10:13;;;;;;;27.48;10.38;;;;;;;10.28;85.18;99928.53;8502346;27;20070;-79
2022/11/02 18:14:15;;;;;;;25.23;10.38;;;;;;;10.34;85.46;99919.28;8501693;27;20055;-79
2022/11/02 18:18:16;;;;;;;22.27;8.93;;;;;;;10.35;85.63;99924.41;8524319;27;20439;-78
2022/11/02 18:22:17;;;;;;;24.65;8.60;;;;;;;10.33;85.82;99921.19;8394319;28;20050;-79
2022/11/02 18:26:19;;;;;;;22.73;8.43;;;;;;;10.35;86.04;99929.81;8395811;28;20052;-79
2022/11/02 18:30:20;;;;;;;22.10;9.23;;;;;;;10.38;86.11;99929.22;8398927;28;20060;-79
2022/11/02 18:34:21;;;;;;;22.85;7.95;;;;;;;10.44;86.10;99922.69;8359280;28;20101;-79
2022/11/02 18:38:21;;;;;;;20.50;7.00;;;;;;;10.46;85.85;99923.22;8402142;28;20178;-78
2022/11/02 18:42:23;;;;;;;19.73;6.78;;;;;;;10.44;85.92;99928.09;8368885;28;20051;-78
2022/11/02 18:46:24;;;;;;;22.48;7.55;;;;;;;10.43;85.76;99921.06;8399175;28;20515;-79
2022/11/02 18:50:26;;;;;;;35.45;12.98;;;;;;;10.36;85.88;99920.63;8382384;28;20044;-79
2022/11/02 18:54:26;;;;;;;17.83;6.78;;;;;;;10.29;86.06;99928.25;8428146;28;20134;-79
2022/11/02 18:58:28;;;;;;;17.98;7.03;;;;;;;10.22;86.20;99925.09;8435040;28;20488;-79
2022/11/02 19:02:28;;;;;;;19.60;7.95;;;;;;;10.19;86.10;99936.47;8427906;28;20040;-79
2022/11/02 19:10:51;;;;;;;20.38;8.27;;;;;;;9.98;86.64;99935.84;8430723;28;20070;-79
2022/11/02 19:14:55;;;;;;;23.67;9.25;;;;;;;9.91;86.50;99934.53;8405442;28;20052;-79
2022/11/02 19:18:58;;;;;;;22.40;9.63;;;;;;;9.85;86.28;99938.38;8441409;28;20752;-79